Fairmont, Montana
Current Conditions -  °F | °C
As of 5:53 PM on Monday 22 Dec 2014 (Local Time) from KBTM Reporting Station
Overcast Overcast  
Wind Chill: 21°   Ceiling: 4800
Heat Index: 28°   Visibility: 10mi
Dew Point: 18°   Wind: 7mph
Humidity: 66%   Direction: 260°W
Pressure: 30.09"   Gusts: NA
Location:  46.0302°N, 113.143°W
Report Text: KBTM 230053Z AUTO 26006KT 10SM BKN048 OVC065 M02/M08 A3009 RMK AO2 SLP223 T10221078
Loading
Personal Weather Stations






























Interactive Weather Map New forecast layout! Learn more

10-Day Weather Forecast

Advertisements
Track Severe Weather on mobile